Time;durP1;ratioP1;P1;durP2;ratioP2;P2;SDS_P1;SDS_P2;PMS_P1;PMS_P2;Temp;Humidity;BMP_temperature;BMP_pressure;BME280_temperature;BME280_humidity;BME280_pressure;Samples;Min_cycle;Max_cycle;Signal;HPM_P1;HPM_P2
2022/06/23 00:00:25;;;;;;;5.23;4.73;;;17.60;71.40;;;;;;5092223;28;20555;-64
2022/06/23 00:02:55;;;;;;;6.13;4.83;;;17.50;72.10;;;;;;5092020;28;20552;-64
2022/06/23 00:05:26;;;;;;;5.27;4.83;;;17.50;72.90;;;;;;5091838;28;20485;-65
2022/06/23 00:07:56;;;;;;;6.13;4.20;;;17.50;74.00;;;;;;5091655;28;20508;-64
2022/06/23 00:10:26;;;;;;;5.87;5.30;;;17.40;74.90;;;;;;5089221;28;20455;-65
2022/06/23 00:12:54;;;;;;;16.83;6.23;;;17.40;76.40;;;;;;5092994;28;20824;-64
2022/06/23 00:15:27;;;;;;;6.40;5.80;;;17.30;76.80;;;;;;5092957;28;20512;-65
2022/06/23 00:18:02;;;;;;;9.50;5.27;;;17.30;77.70;;;;;;5091179;28;20511;-65
2022/06/23 00:20:34;;;;;;;6.60;5.90;;;17.30;78.70;;;;;;5092622;28;20435;-65
2022/06/23 00:23:07;;;;;;;6.23;5.63;;;17.20;79.30;;;;;;5090948;28;20456;-64
2022/06/23 00:25:45;;;;;;;6.73;5.50;;;17.20;80.00;;;;;;5123477;22;20487;-58
2022/06/23 00:28:23;;;;;;;6.17;5.23;;;17.10;80.70;;;;;;5116734;28;20533;-59
2022/06/23 00:30:55;;;;;;;6.40;5.80;;;17.10;81.60;;;;;;5117886;28;20426;-60
2022/06/23 00:33:27;;;;;;;7.70;5.77;;;17.00;82.40;;;;;;5116484;28;20811;-58
2022/06/23 00:35:56;;;;;;;6.30;5.77;;;17.00;83.10;;;;;;5116730;28;20494;-59
2022/06/23 00:38:30;;;;;;;6.43;5.60;;;16.90;83.70;;;;;;5116826;28;20903;-58
2022/06/23 00:40:59;;;;;;;6.50;5.53;;;16.90;84.40;;;;;;5116977;28;20461;-58
2022/06/23 00:43:29;;;;;;;5.63;5.10;;;16.80;84.90;;;;;;5116815;28;20457;-58
2022/06/23 00:46:06;;;;;;;6.23;5.33;;;16.80;85.30;;;;;;5117611;28;20894;-58
2022/06/23 00:48:41;;;;;;;6.03;5.43;;;16.70;85.90;;;;;;5117310;28;20465;-58
2022/06/23 00:51:13;;;;;;;7.33;6.03;;;16.80;86.70;;;;;;5116050;28;20550;-59
2022/06/23 00:53:48;;;;;;;6.93;5.57;;;16.70;87.00;;;;;;5115727;28;20458;-58
2022/06/23 00:56:28;;;;;;;8.03;6.60;;;16.70;87.90;;;;;;5116190;28;20474;-59
2022/06/23 00:58:59;;;;;;;6.30;5.80;;;16.70;87.50;;;;;;5115055;28;20460;-60
2022/06/23 01:01:37;;;;;;;6.40;5.87;;;16.70;88.00;;;;;;5115718;28;20453;-59
2022/06/23 01:04:17;;;;;;;7.07;6.33;;;16.60;88.30;;;;;;5117491;28;20426;-58
2022/06/23 01:06:49;;;;;;;6.87;6.27;;;16.60;88.70;;;;;;5116275;28;20483;-59
2022/06/23 01:09:23;;;;;;;6.10;5.50;;;16.60;89.00;;;;;;5116290;28;20463;-59
2022/06/23 01:11:55;;;;;;;7.20;5.23;;;16.50;89.50;;;;;;5116395;28;20466;-60
2022/06/23 01:14:34;;;;;;;11.67;6.00;;;16.50;89.70;;;;;;5116513;28;20474;-59
2022/06/23 01:17:08;;;;;;;11.77;5.70;;;16.40;89.90;;;;;;5116032;28;20482;-58
2022/06/23 01:20:21;;;;;;;5.80;4.77;;;16.40;90.10;;;;;;5116445;28;20465;-59
2022/06/23 01:23:01;;;;;;;6.87;5.60;;;16.30;90.40;;;;;;5115103;28;20453;-59
2022/06/23 01:26:04;;;;;;;8.90;6.10;;;16.20;90.60;;;;;;5115283;28;20490;-59
2022/06/23 01:28:38;;;;;;;7.47;5.73;;;16.20;90.80;;;;;;5115389;28;20457;-59
2022/06/23 01:31:13;;;;;;;5.43;5.03;;;16.10;91.10;;;;;;5115958;28;20817;-59
2022/06/23 01:33:47;;;;;;;8.47;6.50;;;16.00;91.40;;;;;;5115156;28;20527;-59
2022/06/23 01:36:19;;;;;;;6.20;5.60;;;16.00;91.60;;;;;;5114505;28;20531;-59
2022/06/23 01:39:01;;;;;;;6.70;5.93;;;16.00;91.90;;;;;;5115489;28;20462;-59
2022/06/23 01:41:37;;;;;;;7.70;5.73;;;16.00;92.00;;;;;;5115554;28;20969;-58
2022/06/23 01:44:15;;;;;;;7.50;6.80;;;15.90;92.20;;;;;;5096030;28;20476;-59
2022/06/23 01:46:44;;;;;;;6.17;5.57;;;15.90;92.50;;;;;;5105369;28;20484;-58
2022/06/23 01:49:16;;;;;;;6.37;5.77;;;15.80;92.70;;;;;;5114720;28;20940;-58
2022/06/23 01:51:49;;;;;;;7.20;6.50;;;15.80;93.00;;;;;;5115174;28;20454;-58
2022/06/23 01:54:24;;;;;;;7.80;6.37;;;15.80;93.20;;;;;;5114950;28;20800;-58
2022/06/23 01:57:03;;;;;;;6.77;6.10;;;15.80;93.40;;;;;;5114461;28;20493;-58
2022/06/23 01:59:52;;;;;;;7.40;6.70;;;15.70;93.50;;;;;;5106210;28;20948;-58
2022/06/23 02:02:41;;;;;;;7.40;6.70;;;15.70;93.70;;;;;;5114467;28;20449;-58
2022/06/23 02:05:21;;;;;;;10.00;6.70;;;15.70;93.90;;;;;;5114699;28;20454;-58
2022/06/23 02:07:57;;;;;;;7.93;6.43;;;15.60;94.10;;;;;;5114731;28;20515;-58
2022/06/23 02:10:30;;;;;;;7.17;6.47;;;15.60;94.40;;;;;;5109887;28;20464;-58
2022/06/23 02:13:09;;;;;;;9.03;6.50;;;15.60;94.70;;;;;;5114982;28;20469;-58
2022/06/23 02:15:48;;;;;;;9.43;7.20;;;15.50;95.00;;;;;;5113903;28;20537;-58
2022/06/23 02:18:21;;;;;;;10.13;7.60;;;15.50;95.20;;;;;;5101901;28;20449;-58
2022/06/23 02:21:06;;;;;;;8.03;7.30;;;15.40;95.30;;;;;;5114283;28;20453;-58
2022/06/23 02:23:40;;;;;;;10.33;6.60;;;15.40;95.60;;;;;;5114127;28;20454;-59
2022/06/23 02:26:16;;;;;;;7.03;6.13;;;15.40;95.70;;;;;;5112266;28;20502;-58
2022/06/23 02:28:48;;;;;;;8.30;7.40;;;15.40;95.90;;;;;;5114373;28;20966;-59
2022/06/23 02:31:23;;;;;;;10.30;7.10;;;15.30;96.00;;;;;;5114341;28;20421;-58
2022/06/23 02:33:56;;;;;;;8.40;6.90;;;15.30;96.20;;;;;;5114834;28;20491;-58
2022/06/23 02:36:38;;;;;;;10.10;7.83;;;15.30;96.40;;;;;;5113925;28;20484;-58
2022/06/23 02:39:08;;;;;;;7.47;6.57;;;15.30;96.60;;;;;;5113161;28;20462;-58
2022/06/23 02:41:41;;;;;;;8.40;6.97;;;15.20;96.80;;;;;;5113636;28;20546;-58
2022/06/23 02:44:36;;;;;;;8.13;7.33;;;15.20;96.90;;;;;;5114922;28;20478;-58
2022/06/23 02:47:19;;;;;;;7.83;7.07;;;15.20;97.00;;;;;;5113530;28;21056;-58
2022/06/23 02:50:15;;;;;;;7.70;6.90;;;15.20;97.20;;;;;;5113753;28;20429;-58
2022/06/23 02:53:21;;;;;;;10.73;7.67;;;15.20;97.20;;;;;;5112189;28;20522;-58
2022/06/23 02:56:27;;;;;;;8.03;7.23;;;15.20;97.30;;;;;;5096798;28;20568;-58
2022/06/23 02:59:02;;;;;;;10.47;7.27;;;15.20;97.30;;;;;;5082671;28;20929;-58
2022/06/23 03:01:39;;;;;;;10.80;7.20;;;15.10;97.40;;;;;;5113270;28;20540;-58
2022/06/23 03:04:15;;;;;;;10.80;7.60;;;15.10;97.60;;;;;;5114609;28;20888;-58
2022/06/23 03:06:48;;;;;;;9.27;8.37;;;15.10;97.80;;;;;;5113317;28;20832;-58
2022/06/23 03:09:21;;;;;;;9.97;7.00;;;15.10;97.90;;;;;;5113501;28;20518;-58
2022/06/23 03:11:54;;;;;;;9.77;7.50;;;15.00;98.00;;;;;;5112832;28;20525;-58
2022/06/23 03:14:32;;;;;;;9.50;7.30;;;15.10;98.10;;;;;;5114142;28;20923;-58
2022/06/23 03:17:05;;;;;;;8.00;7.20;;;15.00;98.20;;;;;;5112671;28;20473;-58
2022/06/23 03:19:39;;;;;;;12.73;7.73;;;15.00;98.30;;;;;;5114992;28;20437;-58
2022/06/23 03:22:12;;;;;;;10.00;7.67;;;15.00;98.50;;;;;;5113233;28;20460;-58
2022/06/23 03:24:51;;;;;;;9.40;8.20;;;15.00;98.60;;;;;;5113090;28;20549;-58
2022/06/23 03:27:25;;;;;;;8.60;7.17;;;15.00;98.70;;;;;;5112901;28;20484;-58
2022/06/23 03:29:58;;;;;;;8.50;6.90;;;15.00;98.70;;;;;;5113227;28;20868;-58
2022/06/23 03:32:32;;;;;;;8.50;7.70;;;15.00;98.80;;;;;;5112945;28;20465;-58
2022/06/23 03:35:06;;;;;;;9.37;8.47;;;14.90;98.80;;;;;;5111946;28;20514;-59
2022/06/23 03:37:45;;;;;;;9.40;8.40;;;14.90;98.90;;;;;;5112690;28;20486;-58
2022/06/23 03:43:15;;;;;;;10.90;7.57;;;14.90;99.10;;;;;;5112927;28;20970;-57
2022/06/23 03:45:49;;;;;;;8.50;7.80;;;15.00;99.20;;;;;;5112781;28;20518;-57
2022/06/23 03:48:23;;;;;;;9.10;8.20;;;15.00;99.10;;;;;;5112654;28;20511;-59
2022/06/23 03:50:58;;;;;;;8.37;7.27;;;15.10;99.10;;;;;;5113190;28;20457;-60
2022/06/23 03:53:31;;;;;;;9.63;7.50;;;15.20;99.10;;;;;;5113674;28;20873;-60
2022/06/23 03:56:03;;;;;;;11.30;8.30;;;15.60;99.20;;;;;;5112255;28;20485;-59
2022/06/23 03:58:39;;;;;;;7.13;6.43;;;16.30;98.20;;;;;;5109706;28;20450;-58
2022/06/23 04:01:16;;;;;;;6.83;6.23;;;17.20;96.20;;;;;;5111484;28;20856;-57
2022/06/23 04:03:47;;;;;;;9.80;6.57;;;17.90;94.10;;;;;;5112901;28;20540;-58
2022/06/23 04:10:01;;;;;;;7.20;6.50;;;19.20;87.50;;;;;;5110259;27;20579;-58
2022/06/23 04:12:30;;;;;;;7.97;7.17;;;19.60;84.20;;;;;;5108611;28;21045;-58
2022/06/23 04:15:02;;;;;;;8.73;6.60;;;20.00;81.40;;;;;;5110481;28;20446;-58
2022/06/23 04:17:41;;;;;;;7.53;5.60;;;20.40;78.10;;;;;;5087562;28;20458;-58
2022/06/23 04:20:14;;;;;;;6.90;6.27;;;20.80;74.20;;;;;;5088603;28;20567;-58
2022/06/23 04:22:44;;;;;;;6.70;6.13;;;21.00;71.00;;;;;;5087860;28;20948;-57
2022/06/23 04:25:19;;;;;;;9.60;5.77;;;21.20;69.00;;;;;;5090118;28;20461;-57
2022/06/23 04:27:50;;;;;;;7.00;6.30;;;21.30;67.20;;;;;;5087679;28;20570;-57
2022/06/23 04:30:34;;;;;;;9.60;6.33;;;21.50;65.70;;;;;;5087958;28;20451;-57
2022/06/23 04:33:04;;;;;;;7.33;5.47;;;21.80;63.50;;;;;;5088645;28;20508;-57
2022/06/23 04:35:36;;;;;;;5.67;5.10;;;22.00;62.10;;;;;;5089716;28;20470;-57
2022/06/23 04:38:10;;;;;;;6.80;6.20;;;22.30;60.50;;;;;;5086812;28;20463;-58
2022/06/23 04:40:49;;;;;;;7.30;5.33;;;22.40;59.10;;;;;;5088268;28;20457;-58
2022/06/23 04:43:20;;;;;;;8.37;5.40;;;22.30;58.30;;;;;;5088531;28;20541;-58
2022/06/23 04:46:00;;;;;;;6.03;5.47;;;22.20;58.20;;;;;;5088591;28;20506;-58
2022/06/23 04:48:33;;;;;;;7.90;5.90;;;22.30;57.70;;;;;;5089570;28;20511;-58
2022/06/23 04:51:05;;;;;;;6.67;5.80;;;22.50;57.20;;;;;;5084656;28;20454;-58
2022/06/23 04:53:52;;;;;;;9.13;5.40;;;22.60;56.40;;;;;;5072844;28;20524;-58
2022/06/23 04:56:29;;;;;;;8.20;5.37;;;22.50;56.00;;;;;;5069197;28;20459;-58
2022/06/23 04:59:00;;;;;;;6.10;5.00;;;22.60;55.80;;;;;;5069473;28;20427;-58
2022/06/23 05:01:37;;;;;;;6.63;5.10;;;22.80;55.20;;;;;;5069949;28;20490;-58
2022/06/23 05:04:11;;;;;;;5.70;5.10;;;22.80;54.50;;;;;;5069170;28;20769;-58
2022/06/23 05:06:42;;;;;;;7.67;6.43;;;22.70;54.20;;;;;;5068952;28;20509;-58
2022/06/23 05:09:15;;;;;;;6.27;4.83;;;22.70;54.00;;;;;;5070087;28;20482;-58
2022/06/23 05:11:48;;;;;;;9.43;4.90;;;22.70;53.80;;;;;;5053542;28;20574;-58
2022/06/23 05:14:21;;;;;;;5.70;5.20;;;22.70;53.50;;;;;;5071469;28;20445;-57
2022/06/23 05:16:52;;;;;;;6.80;4.40;;;22.80;53.40;;;;;;5072879;28;21028;-58
2022/06/23 05:19:26;;;;;;;7.60;5.00;;;23.00;53.10;;;;;;5073997;28;20558;-57
2022/06/23 05:21:57;;;;;;;7.70;5.30;;;23.20;52.60;;;;;;5067514;28;20462;-58
2022/06/23 05:24:27;;;;;;;6.60;5.07;;;23.30;52.20;;;;;;5074279;28;20892;-57
2022/06/23 05:26:59;;;;;;;6.13;4.83;;;23.30;52.00;;;;;;5066290;28;21009;-58
2022/06/23 05:29:33;;;;;;;6.10;5.27;;;23.30;51.90;;;;;;5055566;28;20486;-58
2022/06/23 05:32:06;;;;;;;6.50;5.13;;;23.30;52.00;;;;;;5055456;28;20448;-57
2022/06/23 05:34:42;;;;;;;6.83;5.30;;;23.50;51.70;;;;;;5055333;28;20428;-57
2022/06/23 05:37:16;;;;;;;6.40;4.80;;;23.60;51.30;;;;;;5055612;28;20525;-58
2022/06/23 05:39:47;;;;;;;5.57;4.83;;;23.70;51.10;;;;;;5060879;28;20910;-58
2022/06/23 05:42:22;;;;;;;4.60;4.10;;;23.80;50.70;;;;;;5072935;28;20542;-58
2022/06/23 05:44:52;;;;;;;5.90;4.50;;;23.90;50.30;;;;;;5073931;28;21083;-57
2022/06/23 05:47:20;;;;;;;7.20;4.77;;;24.10;50.20;;;;;;5075203;28;20459;-57
2022/06/23 05:49:53;;;;;;;9.50;4.73;;;24.00;49.90;;;;;;5072997;28;20482;-57
2022/06/23 05:52:25;;;;;;;6.63;5.07;;;23.80;50.00;;;;;;5074980;28;20442;-57
2022/06/23 05:54:58;;;;;;;7.63;4.80;;;23.50;50.40;;;;;;5072899;28;20486;-58
2022/06/23 05:57:31;;;;;;;5.40;4.90;;;23.40;50.80;;;;;;5074865;28;20475;-59
2022/06/23 06:00:07;;;;;;;10.97;5.30;;;23.30;51.00;;;;;;5057470;28;20468;-61
2022/06/23 06:02:41;;;;;;;5.77;4.63;;;23.30;51.10;;;;;;5063052;28;20462;-58
2022/06/23 06:05:19;;;;;;;6.93;4.87;;;23.30;51.20;;;;;;5054832;28;20918;-57
2022/06/23 06:07:47;;;;;;;6.60;4.50;;;23.30;51.30;;;;;;5054764;28;20478;-57
2022/06/23 06:10:19;;;;;;;5.37;4.30;;;23.30;51.30;;;;;;5054606;28;20475;-57
2022/06/23 06:12:49;;;;;;;4.47;4.00;;;23.30;51.90;;;;;;5053541;28;20828;-57
2022/06/23 06:15:20;;;;;;;4.57;4.17;;;23.30;51.50;;;;;;5053441;28;20912;-58
2022/06/23 06:17:50;;;;;;;6.20;4.80;;;23.30;51.60;;;;;;5067918;28;20512;-58
2022/06/23 06:20:21;;;;;;;7.50;4.30;;;23.40;51.50;;;;;;5069397;28;20452;-58
2022/06/23 06:22:55;;;;;;;6.03;4.77;;;23.40;51.50;;;;;;5054528;28;20451;-57
2022/06/23 06:25:26;;;;;;;8.43;5.27;;;23.30;51.50;;;;;;5053941;28;20467;-58
2022/06/23 06:27:56;;;;;;;5.47;4.60;;;23.20;51.70;;;;;;5077844;22;20425;-62
2022/06/23 06:30:30;;;;;;;7.17;4.13;;;23.10;51.90;;;;;;5015075;28;20497;-61
2022/06/23 06:32:58;;;;;;;7.00;5.00;;;23.00;51.90;;;;;;5013594;28;20434;-61
2022/06/23 06:35:32;;;;;;;5.53;4.90;;;22.90;52.00;;;;;;5014734;28;20887;-61
2022/06/23 06:38:07;;;;;;;4.87;4.03;;;22.80;52.10;;;;;;5013905;28;20472;-61
2022/06/23 06:40:36;;;;;;;5.53;4.57;;;22.70;52.20;;;;;;5014674;28;20445;-62
2022/06/23 06:43:09;;;;;;;6.90;4.40;;;22.60;52.10;;;;;;5013240;28;20454;-61
2022/06/23 06:45:37;;;;;;;7.20;4.93;;;22.50;52.20;;;;;;5023745;28;20543;-61
2022/06/23 06:48:13;;;;;;;9.07;5.03;;;22.50;52.30;;;;;;5016292;28;20566;-62
2022/06/23 06:50:44;;;;;;;6.90;5.30;;;22.50;52.40;;;;;;5013423;28;20442;-61
2022/06/23 06:53:18;;;;;;;5.90;4.57;;;22.50;52.50;;;;;;5014389;28;20526;-60
2022/06/23 06:56:09;;;;;;;5.83;5.07;;;22.50;52.60;;;;;;5016014;28;20429;-64
2022/06/23 06:58:44;;;;;;;8.03;5.20;;;22.60;52.60;;;;;;5017915;28;20570;-60
2022/06/23 07:01:17;;;;;;;6.13;4.57;;;22.60;52.40;;;;;;5016307;28;20434;-62
2022/06/23 07:03:47;;;;;;;5.43;4.47;;;22.60;52.40;;;;;;5014370;28;20482;-61
2022/06/23 07:06:18;;;;;;;9.60;5.20;;;22.70;52.40;;;;;;5014158;28;20491;-61
2022/06/23 07:08:51;;;;;;;5.90;4.50;;;22.80;52.40;;;;;;5012828;28;20537;-62
2022/06/23 07:11:22;;;;;;;6.63;4.80;;;22.90;52.30;;;;;;5014077;28;20437;-61
2022/06/23 07:13:56;;;;;;;5.70;4.37;;;23.00;52.10;;;;;;5012795;28;20461;-61
2022/06/23 07:16:29;;;;;;;5.90;4.63;;;23.00;52.00;;;;;;5014545;28;20449;-62
2022/06/23 07:19:02;;;;;;;7.63;4.97;;;23.00;51.90;;;;;;5015572;28;20534;-62
2022/06/23 07:21:35;;;;;;;7.17;4.90;;;23.10;52.00;;;;;;5018159;28;20446;-59
2022/06/23 07:24:11;;;;;;;7.10;5.13;;;23.20;52.00;;;;;;5016929;28;20532;-61
2022/06/23 07:26:45;;;;;;;6.30;4.47;;;23.20;51.80;;;;;;5014286;28;20506;-60
2022/06/23 07:29:27;;;;;;;6.93;4.80;;;23.30;51.70;;;;;;5012569;28;20513;-61
2022/06/23 07:32:03;;;;;;;4.93;4.43;;;23.40;51.70;;;;;;5012581;28;20505;-61
2022/06/23 07:34:38;;;;;;;6.20;5.20;;;23.50;52.10;;;;;;5033363;28;20445;-62
2022/06/23 07:37:14;;;;;;;5.60;4.07;;;23.60;51.20;;;;;;5035538;28;20448;-62
2022/06/23 07:39:42;;;;;;;7.33;4.80;;;23.80;51.00;;;;;;5015895;28;20892;-62
2022/06/23 07:42:15;;;;;;;6.70;4.97;;;23.80;50.90;;;;;;5016081;28;20464;-61
2022/06/23 07:44:49;;;;;;;7.20;4.93;;;23.90;51.00;;;;;;5013347;28;20956;-61
2022/06/23 07:47:17;;;;;;;6.37;4.87;;;23.90;51.00;;;;;;5013674;28;20439;-62
2022/06/23 07:49:45;;;;;;;7.63;4.93;;;23.90;51.00;;;;;;5012092;28;20544;-60
2022/06/23 07:52:16;;;;;;;4.60;4.20;;;23.80;50.80;;;;;;5013307;28;20476;-62
2022/06/23 07:54:44;;;;;;;6.93;4.97;;;23.90;50.60;;;;;;5013427;28;20442;-61
2022/06/23 07:57:12;;;;;;;9.03;4.50;;;24.00;50.10;;;;;;5012865;28;20449;-62
2022/06/23 07:59:45;;;;;;;7.70;4.60;;;24.10;50.10;;;;;;5016716;28;21008;-62
2022/06/23 08:02:21;;;;;;;5.13;4.23;;;24.20;49.60;;;;;;5015076;28;20495;-60
2022/06/23 08:04:55;;;;;;;6.70;5.30;;;24.40;49.40;;;;;;5013415;28;20925;-62
2022/06/23 08:07:22;;;;;;;5.40;4.87;;;24.50;49.10;;;;;;5014430;28;20504;-61
2022/06/23 08:09:53;;;;;;;6.33;4.97;;;24.60;49.00;;;;;;5012451;28;20540;-61
2022/06/23 08:18:12;;;;;;;6.73;4.33;;;25.00;48.50;;;;;;5018242;28;20452;-62
2022/06/23 08:20:43;;;;;;;6.40;4.00;;;25.30;48.00;;;;;;5012319;28;20517;-61
2022/06/23 08:23:15;;;;;;;6.50;4.73;;;25.30;47.70;;;;;;5012842;28;20434;-61
2022/06/23 08:25:43;;;;;;;7.63;4.60;;;25.30;47.90;;;;;;5012616;28;20466;-60
2022/06/23 08:28:12;;;;;;;5.23;4.73;;;25.30;47.80;;;;;;5011682;28;20481;-61
2022/06/23 08:30:41;;;;;;;4.87;4.13;;;25.30;47.90;;;;;;5030976;28;20534;-61
2022/06/23 08:33:09;;;;;;;5.87;4.50;;;25.30;47.90;;;;;;5032528;28;20810;-61
2022/06/23 08:35:41;;;;;;;5.37;3.50;;;25.40;47.70;;;;;;5027452;28;20488;-64
2022/06/23 08:38:12;;;;;;;5.60;4.23;;;25.50;47.50;;;;;;5032857;28;20528;-65
2022/06/23 08:40:55;;;;;;;5.57;3.77;;;25.60;47.20;;;;;;5035469;28;20436;-63
2022/06/23 08:43:30;;;;;;;4.47;3.80;;;25.70;46.80;;;;;;5031652;28;20591;-66
2022/06/23 08:46:10;;;;;;;6.93;3.83;;;25.80;46.80;;;;;;5011972;28;20460;-66
2022/06/23 08:48:43;;;;;;;4.47;3.43;;;25.80;46.50;;;;;;5012634;28;20566;-62
2022/06/23 08:51:18;;;;;;;5.77;3.47;;;25.90;46.30;;;;;;5012573;28;20524;-62
2022/06/23 08:54:00;;;;;;;4.10;3.53;;;25.90;46.10;;;;;;5011339;28;20449;-62
2022/06/23 08:56:35;;;;;;;7.80;3.70;;;26.20;46.00;;;;;;5016671;28;20559;-62
2022/06/23 08:59:13;;;;;;;5.03;3.60;;;26.20;45.60;;;;;;4997636;28;20508;-62
2022/06/23 09:01:51;;;;;;;6.67;4.07;;;26.30;45.20;;;;;;5015054;28;20466;-63
2022/06/23 09:04:28;;;;;;;6.93;3.33;;;26.50;44.90;;;;;;5016551;28;20491;-64
2022/06/23 09:07:04;;;;;;;4.17;3.70;;;26.60;44.80;;;;;;5016461;28;20477;-63
2022/06/23 09:09:41;;;;;;;6.20;3.67;;;26.70;44.50;;;;;;5034263;28;20527;-62
2022/06/23 09:12:18;;;;;;;4.80;3.40;;;26.80;44.00;;;;;;5015580;28;20453;-63
2022/06/23 09:15:22;;;;;;;7.00;3.20;;;26.90;43.40;;;;;;5016187;28;20469;-63
2022/06/23 09:18:10;;;;;;;8.47;3.60;;;27.00;43.10;;;;;;5016400;28;20570;-63
2022/06/23 09:20:59;;;;;;;5.40;3.10;;;27.10;43.00;;;;;;5015417;28;20441;-62
2022/06/23 09:23:51;;;;;;;6.27;3.50;;;27.20;42.80;;;;;;5034098;28;20456;-61
2022/06/23 09:26:31;;;;;;;6.27;3.40;;;27.40;42.50;;;;;;5035553;28;20433;-63
2022/06/23 09:29:08;;;;;;;4.40;3.00;;;27.40;42.20;;;;;;5018354;28;20537;-64
2022/06/23 09:31:52;;;;;;;7.30;3.13;;;27.60;40.90;;;;;;5015997;28;20179;-68
2022/06/23 09:34:41;;;;;;;4.20;3.30;;;27.70;39.70;;;;;;5016700;28;20907;-69
2022/06/23 09:37:41;;;;;;;6.27;3.77;;;28.00;39.40;;;;;;5030342;28;20452;-70
2022/06/23 09:40:36;;;;;;;7.97;3.60;;;28.20;39.20;;;;;;5036427;28;20507;-66
2022/06/23 09:43:33;;;;;;;3.60;3.10;;;28.30;38.90;;;;;;5033490;28;20479;-65
2022/06/23 09:46:23;;;;;;;3.63;3.30;;;28.30;38.40;;;;;;5019731;28;20508;-66
2022/06/23 09:49:20;;;;;;;3.27;2.93;;;28.30;38.00;;;;;;5001491;28;20474;-66
2022/06/23 09:52:34;;;;;;;4.50;2.70;;;28.50;37.20;;;;;;5002270;28;20553;-65
2022/06/23 09:55:25;;;;;;;4.87;3.23;;;28.50;36.40;;;;;;5015922;28;20426;-66
2022/06/23 09:58:45;;;;;;;5.60;3.07;;;28.50;36.40;;;;;;5015860;28;20461;-65
2022/06/23 10:01:30;;;;;;;3.63;2.50;;;28.50;35.90;;;;;;4936424;29;20938;-66
2022/06/23 10:04:12;;;;;;;3.90;2.67;;;28.60;35.60;;;;;;5018597;28;20457;-65
2022/06/23 10:07:06;;;;;;;7.33;3.10;;;28.70;35.40;;;;;;5035632;28;20429;-64
2022/06/23 10:10:03;;;;;;;3.10;2.70;;;28.80;35.00;;;;;;5029281;28;20469;-66
2022/06/23 10:12:56;;;;;;;6.77;3.60;;;29.00;35.10;;;;;;5014557;28;20457;-67
2022/06/23 10:15:43;;;;;;;4.60;3.03;;;29.20;34.10;;;;;;5016235;28;20550;-66
2022/06/23 10:18:28;;;;;;;3.00;2.70;;;29.30;33.70;;;;;;5014097;28;20565;-67
2022/06/23 10:21:12;;;;;;;7.13;3.40;;;29.40;33.40;;;;;;5014964;28;20441;-66
2022/06/23 10:24:03;;;;;;;5.27;2.73;;;29.40;33.90;;;;;;5013926;28;20496;-66
2022/06/23 10:26:50;;;;;;;4.23;2.70;;;29.50;33.20;;;;;;5014887;28;20449;-66
2022/06/23 10:29:51;;;;;;;3.33;2.43;;;29.70;32.90;;;;;;5014503;28;20470;-65
2022/06/23 10:32:45;;;;;;;3.57;2.57;;;29.90;33.10;;;;;;5013543;28;20874;-66
2022/06/23 10:35:24;;;;;;;4.27;2.30;;;30.00;32.10;;;;;;5020254;28;20457;-64
2022/06/23 10:38:04;;;;;;;3.90;3.20;;;30.00;32.00;;;;;;5034745;28;20436;-67
2022/06/23 10:41:10;;;;;;;2.93;2.50;;;30.00;32.30;;;;;;5029147;28;20510;-70
2022/06/23 10:44:05;;;;;;;5.30;3.03;;;30.00;31.90;;;;;;5001777;28;20450;-68
2022/06/23 10:46:41;;;;;;;3.27;2.40;;;30.00;31.70;;;;;;5016383;28;20504;-66
2022/06/23 10:49:25;;;;;;;4.50;2.90;;;29.90;31.90;;;;;;5014614;28;20976;-67
2022/06/23 10:52:35;;;;;;;3.60;3.00;;;29.90;32.30;;;;;;5015501;28;20469;-67
2022/06/23 10:55:28;;;;;;;4.00;2.70;;;30.00;32.20;;;;;;5014331;28;20894;-58
2022/06/23 10:58:26;;;;;;;3.30;2.93;;;30.20;31.50;;;;;;5003991;28;20511;-58
2022/06/23 11:01:06;;;;;;;4.67;2.77;;;30.20;31.10;;;;;;5023676;28;20456;-57
2022/06/23 11:03:53;;;;;;;5.13;3.23;;;30.30;31.20;;;;;;5023383;28;20543;-58
2022/06/23 11:06:53;;;;;;;3.60;2.93;;;30.40;30.80;;;;;;5033392;28;20468;-58
2022/06/23 11:09:40;;;;;;;4.20;2.73;;;30.50;30.50;;;;;;5034714;28;20488;-59
2022/06/23 11:12:25;;;;;;;2.80;2.30;;;30.60;30.20;;;;;;5019783;28;20445;-57
2022/06/23 11:15:07;;;;;;;4.50;2.80;;;30.70;30.10;;;;;;5016367;28;20429;-58
2022/06/23 11:17:56;;;;;;;3.43;2.47;;;30.60;30.00;;;;;;5017845;28;20484;-58
2022/06/23 11:20:35;;;;;;;2.87;2.57;;;30.60;30.30;;;;;;5036121;28;20483;-61
2022/06/23 11:23:09;;;;;;;4.33;2.90;;;30.50;30.40;;;;;;5035682;28;20550;-61
2022/06/23 11:25:45;;;;;;;4.63;3.20;;;30.50;30.30;;;;;;5028132;28;20527;-60
2022/06/23 11:28:23;;;;;;;3.40;2.70;;;30.50;30.40;;;;;;5030230;28;20550;-61
2022/06/23 11:31:01;;;;;;;4.07;2.60;;;30.70;30.50;;;;;;5036021;28;20480;-60
2022/06/23 11:33:59;;;;;;;3.00;2.70;;;30.80;30.40;;;;;;5032230;28;20560;-62
2022/06/23 11:36:43;;;;;;;3.40;3.10;;;30.70;30.50;;;;;;5004445;28;20705;-62
2022/06/23 11:39:29;;;;;;;2.97;2.27;;;30.70;30.80;;;;;;5035190;28;21049;-62
2022/06/23 11:42:15;;;;;;;7.33;2.70;;;30.90;30.80;;;;;;5013912;28;20436;-61
2022/06/23 11:45:03;;;;;;;3.70;2.90;;;31.00;30.70;;;;;;4995941;28;20439;-62
2022/06/23 11:47:43;;;;;;;5.73;3.00;;;31.10;30.70;;;;;;4997532;28;20423;-60
2022/06/23 11:50:20;;;;;;;3.90;2.70;;;31.10;30.70;;;;;;5013249;28;20470;-63
2022/06/23 11:53:15;;;;;;;3.40;2.43;;;31.20;30.50;;;;;;5013794;28;20488;-62
2022/06/23 11:55:48;;;;;;;4.20;2.23;;;31.30;30.30;;;;;;5013695;28;20485;-62
2022/06/23 11:58:54;;;;;;;6.00;3.20;;;31.30;30.30;;;;;;5014494;28;20540;-62
2022/06/23 12:01:23;;;;;;;2.60;2.30;;;31.70;30.00;;;;;;4953307;29;20523;-61
2022/06/23 12:04:21;;;;;;;3.53;2.50;;;32.30;29.50;;;;;;4953993;29;20527;-62
2022/06/23 12:07:02;;;;;;;5.10;3.07;;;32.90;28.90;;;;;;4986500;28;20438;-61
2022/06/23 12:09:36;;;;;;;4.50;2.50;;;33.40;28.40;;;;;;5014267;28;20473;-60
2022/06/23 12:12:07;;;;;;;4.17;2.60;;;33.70;28.00;;;;;;5031083;28;20481;-62
2022/06/23 12:14:36;;;;;;;3.23;2.77;;;34.00;27.90;;;;;;5031289;28;20457;-60
2022/06/23 12:17:14;;;;;;;3.77;2.83;;;34.20;27.70;;;;;;5033040;28;20453;-62
2022/06/23 12:19:49;;;;;;;2.73;2.50;;;34.40;27.60;;;;;;5032092;28;20559;-60
2022/06/23 12:22:22;;;;;;;3.33;3.03;;;34.70;27.50;;;;;;5031629;28;20460;-61
2022/06/23 12:25:00;;;;;;;3.03;2.33;;;35.10;27.10;;;;;;5033189;28;20444;-60
2022/06/23 12:27:33;;;;;;;5.30;2.27;;;35.30;26.70;;;;;;5033090;28;20433;-59
2022/06/23 12:30:05;;;;;;;2.70;2.50;;;35.50;26.00;;;;;;5034256;28;20533;-59
2022/06/23 12:32:48;;;;;;;5.37;2.20;;;35.50;25.50;;;;;;5037341;28;20491;-59
2022/06/23 12:35:23;;;;;;;2.80;2.10;;;35.60;25.50;;;;;;5037760;28;20439;-60
2022/06/23 12:38:00;;;;;;;2.87;2.30;;;35.80;25.30;;;;;;5036816;28;20440;-59
2022/06/23 12:40:33;;;;;;;4.83;2.87;;;36.10;25.00;;;;;;5036708;28;20463;-60
2022/06/23 12:43:07;;;;;;;2.77;2.47;;;36.10;25.20;;;;;;5037043;28;20901;-60
2022/06/23 12:46:05;;;;;;;3.10;2.00;;;35.80;24.70;;;;;;5037111;28;20494;-60
2022/06/23 12:49:05;;;;;;;3.87;2.03;;;35.20;25.00;;;;;;5036571;28;20473;-59
2022/06/23 12:51:44;;;;;;;2.60;2.40;;;34.50;25.30;;;;;;5033777;28;20485;-59
2022/06/23 12:54:48;;;;;;;2.90;2.30;;;33.80;26.00;;;;;;5037602;28;20433;-59
2022/06/23 12:57:40;;;;;;;3.10;2.30;;;33.20;26.80;;;;;;5036522;28;20897;-59
2022/06/23 13:00:11;;;;;;;4.13;2.77;;;32.80;27.40;;;;;;5036289;28;20444;-60
2022/06/23 13:02:41;;;;;;;2.90;2.57;;;32.70;27.70;;;;;;5036440;28;20460;-60
2022/06/23 13:05:16;;;;;;;3.07;2.47;;;32.70;27.80;;;;;;5036706;28;20852;-60
2022/06/23 13:07:49;;;;;;;2.80;2.50;;;32.60;27.90;;;;;;5036466;28;20503;-60
2022/06/23 13:10:22;;;;;;;2.97;2.67;;;32.60;27.90;;;;;;5036724;28;20453;-60
2022/06/23 13:12:58;;;;;;;3.00;2.70;;;32.60;28.10;;;;;;5036923;28;20457;-60
2022/06/23 13:15:38;;;;;;;2.57;2.37;;;32.50;28.10;;;;;;5036530;28;20429;-59
2022/06/23 13:18:18;;;;;;;2.80;2.40;;;32.40;28.00;;;;;;5036346;28;20828;-59
2022/06/23 13:20:50;;;;;;;3.30;2.67;;;32.20;28.10;;;;;;5036591;28;20467;-60
2022/06/23 13:23:21;;;;;;;3.60;2.53;;;32.10;28.80;;;;;;5035709;28;20429;-59
2022/06/23 13:25:54;;;;;;;3.40;2.40;;;32.00;28.50;;;;;;5035824;28;20511;-60
2022/06/23 13:28:33;;;;;;;4.03;2.97;;;32.00;28.50;;;;;;5036804;28;20534;-59
2022/06/23 13:31:08;;;;;;;6.57;3.00;;;32.00;28.40;;;;;;5035935;28;20484;-59
2022/06/23 13:33:40;;;;;;;6.07;2.93;;;32.10;28.30;;;;;;5035872;28;21019;-58
2022/06/23 13:36:17;;;;;;;2.97;2.67;;;32.20;28.30;;;;;;5036155;28;20520;-58
2022/06/23 13:38:51;;;;;;;4.00;3.23;;;32.20;28.40;;;;;;5035872;28;20555;-59
2022/06/23 13:41:26;;;;;;;3.50;2.80;;;32.20;28.60;;;;;;5035418;28;20490;-58
2022/06/23 13:44:03;;;;;;;3.73;2.57;;;32.10;28.80;;;;;;5035669;28;20433;-59
2022/06/23 13:46:36;;;;;;;3.33;2.60;;;32.00;29.00;;;;;;5035207;28;20528;-59
2022/06/23 13:49:13;;;;;;;3.07;2.13;;;31.90;29.10;;;;;;5035284;28;20522;-60
2022/06/23 13:51:48;;;;;;;2.50;2.30;;;32.00;29.00;;;;;;5035434;28;20882;-59